createdAt,value
2023-05-04T00:00:28.206Z,539.00
2023-05-04T00:01:28.232Z,559.00
2023-05-04T00:02:28.443Z,580.00
2023-05-04T00:03:28.514Z,577.00
2023-05-04T00:04:28.503Z,567.00
2023-05-04T00:05:28.530Z,583.00
2023-05-04T00:06:28.605Z,618.00
2023-05-04T00:07:28.639Z,655.00
2023-05-04T00:08:28.715Z,700.00
2023-05-04T00:09:28.814Z,734.00
2023-05-04T00:10:28.831Z,839.00
2023-05-04T00:11:29.259Z,951.00
2023-05-04T00:12:29.024Z,1067.00
2023-05-04T00:13:29.069Z,1093.00
2023-05-04T00:14:29.063Z,1094.00
2023-05-04T00:15:29.147Z,1037.00
2023-05-04T00:16:29.206Z,985.00
2023-05-04T00:17:29.302Z,985.00
2023-05-04T00:18:29.343Z,869.00
2023-05-04T00:19:29.452Z,892.00
2023-05-04T00:20:29.444Z,906.00
2023-05-04T00:21:29.501Z,940.00
2023-05-04T00:22:29.552Z,947.00
2023-05-04T00:23:29.575Z,895.00
2023-05-04T00:24:29.692Z,917.00
2023-05-04T00:25:29.728Z,954.00
2023-05-04T00:26:30.255Z,961.00
2023-05-04T00:27:29.866Z,929.00
2023-05-04T00:28:29.892Z,885.00
2023-05-04T00:29:29.959Z,936.00
2023-05-04T00:30:30.038Z,976.00
2023-05-04T00:31:30.134Z,1039.00
2023-05-04T00:32:30.198Z,1150.00
2023-05-04T00:33:30.439Z,1275.00
2023-05-04T00:34:30.202Z,1387.00
2023-05-04T00:35:30.304Z,1508.00
2023-05-04T00:36:30.732Z,1650.00
2023-05-04T00:37:30.368Z,1822.00
2023-05-04T00:38:30.455Z,1926.00
2023-05-04T00:39:30.433Z,1961.00
2023-05-04T00:40:30.476Z,2082.00
2023-05-04T00:41:30.565Z,2154.00
2023-05-04T00:42:30.477Z,2064.00
2023-05-04T00:43:30.497Z,1907.00
2023-05-04T00:44:30.642Z,1863.00
2023-05-04T00:45:30.535Z,1844.00
2023-05-04T00:46:31.311Z,1776.00
2023-05-04T00:47:30.595Z,1785.00
2023-05-04T00:48:30.557Z,1808.00
2023-05-04T00:49:30.647Z,1831.00
2023-05-04T00:50:30.642Z,1855.00
2023-05-04T00:51:30.642Z,1822.00
2023-05-04T00:52:30.640Z,1806.00
2023-05-04T00:53:30.666Z,1822.00
2023-05-04T00:54:30.634Z,1828.00
2023-05-04T00:55:30.648Z,1802.00
2023-05-04T00:56:30.772Z,1846.00
2023-05-04T00:57:30.604Z,1844.00
2023-05-04T00:58:30.691Z,1808.00
2023-05-04T00:59:30.641Z,1753.00
2023-05-04T01:00:30.626Z,1769.00
2023-05-04T01:01:30.814Z,1491.00
2023-05-04T01:02:30.691Z,1148.00
2023-05-04T01:03:30.687Z,1007.00
2023-05-04T01:04:30.713Z,894.00
2023-05-04T01:05:30.672Z,805.00
2023-05-04T01:06:30.677Z,699.00
2023-05-04T01:07:30.660Z,630.00
2023-05-04T01:08:30.675Z,577.00
2023-05-04T01:09:30.648Z,569.00
2023-05-04T01:10:30.779Z,556.00
2023-05-04T01:11:30.672Z,573.00
2023-05-04T01:12:30.662Z,587.00
2023-05-04T01:13:30.678Z,584.00
2023-05-04T01:14:30.692Z,541.00
2023-05-04T01:15:30.708Z,512.00
2023-05-04T01:16:30.716Z,500.00
2023-05-04T01:17:30.729Z,500.00
2023-05-04T01:18:30.746Z,496.00
2023-05-04T01:19:30.717Z,515.00
2023-05-04T01:20:30.712Z,529.00
2023-05-04T01:21:30.781Z,513.00
2023-05-04T01:22:30.752Z,500.00
2023-05-04T01:23:30.744Z,519.00
2023-05-04T01:24:30.788Z,546.00
2023-05-04T01:25:30.782Z,576.00
2023-05-04T01:26:30.773Z,585.00
2023-05-04T01:27:30.765Z,578.00
2023-05-04T01:28:30.780Z,546.00
2023-05-04T01:29:30.830Z,526.00
2023-05-04T01:30:30.885Z,522.00
2023-05-04T01:32:30.845Z,529.00
2023-05-04T01:33:30.852Z,519.00
2023-05-04T01:34:30.854Z,514.00
2023-05-04T01:35:30.873Z,516.00
2023-05-04T01:36:30.959Z,527.00
2023-05-04T01:37:30.875Z,537.00
2023-05-04T01:38:30.903Z,574.00
2023-05-04T01:39:30.892Z,613.00
2023-05-04T01:40:30.900Z,622.00
2023-05-04T01:41:31.012Z,589.00
2023-05-04T01:42:31.010Z,581.00
2023-05-04T01:43:30.984Z,612.00
2023-05-04T01:44:31.006Z,645.00
2023-05-04T01:45:31.026Z,788.00
2023-05-04T01:46:31.373Z,958.00
2023-05-04T01:47:31.075Z,1107.00
2023-05-04T01:48:31.116Z,1203.00
2023-05-04T01:49:31.120Z,1279.00
2023-05-04T01:50:31.132Z,1236.00
2023-05-04T01:51:31.285Z,1264.00
2023-05-04T01:52:31.274Z,1315.00
2023-05-04T01:53:31.282Z,1354.00
2023-05-04T01:54:31.285Z,1354.00
2023-05-04T01:55:31.318Z,1351.00
2023-05-04T01:56:31.399Z,1443.00
2023-05-04T01:57:31.401Z,1539.00
2023-05-04T01:58:31.425Z,1558.00
2023-05-04T01:59:31.458Z,1447.00
2023-05-04T02:00:31.507Z,1361.00
2023-05-04T02:01:31.756Z,1400.00
2023-05-04T02:02:31.858Z,1422.00
2023-05-04T02:03:31.787Z,1442.00
2023-05-04T02:04:31.732Z,1417.00
2023-05-04T02:05:31.785Z,1474.00
2023-05-04T02:06:31.866Z,1537.00
2023-05-04T02:07:31.910Z,1572.00
2023-05-04T02:08:31.976Z,1544.00
2023-05-04T02:09:32.035Z,1459.00
2023-05-04T02:10:32.044Z,1489.00
2023-05-04T02:11:32.124Z,1461.00
2023-05-04T02:12:32.234Z,1406.00
2023-05-04T02:13:32.244Z,1413.00
2023-05-04T02:14:32.308Z,1436.00
2023-05-04T02:15:32.372Z,1457.00
2023-05-04T02:16:32.594Z,1449.00
2023-05-04T02:17:32.507Z,1464.00
2023-05-04T02:18:32.553Z,1489.00
2023-05-04T02:19:32.598Z,1478.00
2023-05-04T02:20:32.692Z,1506.00
2023-05-04T02:21:32.743Z,1584.00
2023-05-04T02:22:32.782Z,1594.00
2023-05-04T02:23:32.824Z,1596.00
2023-05-04T02:24:32.899Z,1598.00
2023-05-04T02:25:33.008Z,1602.00
2023-05-04T02:26:32.992Z,1650.00
2023-05-04T02:27:33.018Z,1691.00
2023-05-04T02:28:33.160Z,1738.00
2023-05-04T02:29:33.176Z,1818.00
2023-05-04T02:30:33.251Z,1949.00
2023-05-04T02:31:33.317Z,2167.00
2023-05-04T02:32:33.378Z,2296.00
2023-05-04T02:33:33.451Z,2396.00
2023-05-04T02:34:33.438Z,2494.00
2023-05-04T02:35:33.601Z,2537.00
2023-05-04T02:36:33.599Z,2548.00
2023-05-04T02:37:33.839Z,2560.00
2023-05-04T02:38:33.708Z,2537.00
2023-05-04T02:39:33.747Z,2569.00
2023-05-04T02:40:33.836Z,2650.00
2023-05-04T02:41:33.854Z,2676.00
2023-05-04T02:42:33.962Z,2633.00
2023-05-04T02:43:33.948Z,2590.00
2023-05-04T02:44:33.990Z,2564.00
2023-05-04T02:45:34.126Z,2581.00
2023-05-04T02:46:34.086Z,2546.00
2023-05-04T02:47:34.161Z,2571.00
2023-05-04T02:48:34.197Z,2608.00
2023-05-04T02:49:34.224Z,2617.00
2023-05-04T02:50:34.216Z,2681.00
2023-05-04T02:51:34.256Z,2620.00
2023-05-04T02:52:34.357Z,2593.00
2023-05-04T02:53:34.326Z,2578.00
2023-05-04T02:54:34.335Z,2580.00
2023-05-04T02:55:34.360Z,2601.00
2023-05-04T02:56:34.361Z,2570.00
2023-05-04T02:57:34.382Z,2589.00
2023-05-04T02:58:34.373Z,2617.00
2023-05-04T02:59:34.357Z,2646.00
2023-05-04T03:00:34.426Z,2702.00
2023-05-04T03:01:35.010Z,2755.00
2023-05-04T03:02:34.887Z,2763.00
2023-05-04T03:03:34.389Z,2717.00
2023-05-04T03:04:34.472Z,2750.00
2023-05-04T03:05:34.408Z,2764.00
2023-05-04T03:06:34.411Z,2803.00
2023-05-04T03:07:34.564Z,2838.00
2023-05-04T03:08:34.422Z,2844.00
2023-05-04T03:09:34.473Z,2865.00
2023-05-04T03:10:34.470Z,2819.00
2023-05-04T03:11:34.479Z,2787.00
2023-05-04T03:12:34.726Z,2792.00
2023-05-04T03:13:34.495Z,2848.00
2023-05-04T03:14:34.543Z,2897.00
2023-05-04T03:15:34.654Z,2970.00
2023-05-04T03:16:34.546Z,3077.00
2023-05-04T03:17:34.636Z,3110.00
2023-05-04T03:19:54.619Z,500.00
2023-05-04T03:20:54.667Z,500.00
2023-05-04T03:21:54.615Z,500.00
2023-05-04T03:22:54.587Z,500.00
2023-05-04T03:23:54.634Z,500.00
2023-05-04T03:24:54.602Z,510.00
2023-05-04T03:25:54.569Z,513.00
2023-05-04T03:26:54.553Z,519.00
2023-05-04T03:27:54.559Z,526.00
2023-05-04T03:28:54.549Z,533.00
2023-05-04T03:29:54.595Z,529.00
2023-05-04T03:30:54.530Z,509.00
2023-05-04T03:31:54.555Z,505.00
2023-05-04T03:32:54.586Z,500.00
2023-05-04T03:33:54.505Z,499.00
2023-05-04T03:34:54.517Z,500.00
2023-05-04T03:35:54.565Z,499.00
2023-05-04T03:36:54.516Z,500.00
2023-05-04T03:37:54.487Z,500.00
2023-05-04T03:38:54.485Z,499.00
2023-05-04T03:39:54.459Z,500.00
2023-05-04T03:40:54.499Z,500.00
2023-05-04T03:41:54.508Z,500.00
2023-05-04T03:42:54.479Z,447.00
2023-05-04T03:43:54.454Z,432.00
2023-05-04T03:44:54.533Z,471.00
2023-05-04T03:45:54.445Z,500.00
2023-05-04T03:46:54.445Z,514.00
2023-05-04T03:47:54.468Z,529.00
2023-05-04T03:48:54.466Z,559.00
2023-05-04T03:49:54.421Z,624.00
2023-05-04T03:50:54.423Z,836.00
2023-05-04T03:51:54.410Z,1106.00
2023-05-04T03:52:54.534Z,1399.00
2023-05-04T03:53:54.453Z,1522.00
2023-05-04T03:54:54.426Z,1659.00
2023-05-04T03:55:54.399Z,1714.00
2023-05-04T03:56:54.420Z,1746.00
2023-05-04T03:57:54.397Z,1793.00
2023-05-04T03:58:54.391Z,1857.00
2023-05-04T03:59:57.032Z,1916.00
2023-05-04T04:00:54.352Z,1919.00
2023-05-04T04:01:54.332Z,1934.00
2023-05-04T04:02:54.442Z,1916.00
2023-05-04T04:03:54.501Z,1884.00
2023-05-04T04:04:54.387Z,1865.00
2023-05-04T04:05:54.361Z,1811.00
2023-05-04T04:06:54.293Z,1772.00
2023-05-04T04:07:54.282Z,1788.00
2023-05-04T04:08:54.277Z,1820.00
2023-05-04T04:09:54.282Z,1847.00
2023-05-04T04:10:54.261Z,1876.00
2023-05-04T04:11:54.311Z,1899.00
2023-05-04T04:12:54.316Z,1906.00
2023-05-04T04:13:54.250Z,1913.00
2023-05-04T04:14:54.278Z,1936.00
2023-05-04T04:15:54.248Z,1942.00
2023-05-04T04:16:54.235Z,1934.00
2023-05-04T04:17:54.304Z,1928.00
2023-05-04T04:18:54.223Z,1940.00
2023-05-04T04:19:54.358Z,1935.00
2023-05-04T04:20:54.203Z,1930.00
2023-05-04T04:21:54.199Z,1950.00
2023-05-04T04:22:54.228Z,1953.00
2023-05-04T04:23:54.178Z,1944.00
2023-05-04T04:24:54.172Z,1906.00
2023-05-04T04:25:54.224Z,1826.00
2023-05-04T04:26:54.267Z,1796.00
2023-05-04T04:27:54.203Z,1776.00
2023-05-04T04:28:54.164Z,1791.00
2023-05-04T04:29:54.173Z,1854.00
2023-05-04T04:30:54.186Z,1856.00
2023-05-04T04:31:55.038Z,1781.00
2023-05-04T04:32:54.183Z,1641.00
2023-05-04T04:33:54.187Z,1612.00
2023-05-04T04:34:54.109Z,1605.00
2023-05-04T04:35:54.112Z,1597.00
2023-05-04T04:36:54.108Z,1570.00
2023-05-04T04:37:54.106Z,1537.00
2023-05-04T04:38:54.079Z,1524.00
2023-05-04T04:39:54.148Z,1499.00
2023-05-04T04:40:54.089Z,1488.00
2023-05-04T04:41:54.088Z,1528.00
2023-05-04T04:42:54.050Z,1497.00
2023-05-04T04:43:54.050Z,1481.00
2023-05-04T04:44:54.022Z,1469.00
2023-05-04T04:45:54.004Z,1445.00
2023-05-04T04:46:54.122Z,1471.00
2023-05-04T04:47:54.187Z,1493.00
2023-05-04T04:48:54.042Z,1467.00
2023-05-04T04:49:54.051Z,1448.00
2023-05-04T04:50:54.016Z,1473.00
2023-05-04T04:51:54.016Z,1487.00
2023-05-04T04:52:54.004Z,1536.00
2023-05-04T04:53:54.041Z,1495.00
2023-05-04T04:54:53.965Z,1511.00
2023-05-04T04:55:54.062Z,1478.00
2023-05-04T04:56:54.095Z,1519.00
2023-05-04T04:57:54.412Z,1494.00
2023-05-04T04:58:54.109Z,1472.00
2023-05-04T04:59:54.160Z,1486.00
2023-05-04T05:00:54.250Z,1510.00
2023-05-04T05:01:54.220Z,1509.00
2023-05-04T05:02:54.410Z,1506.00
2023-05-04T05:03:54.302Z,1455.00
2023-05-04T05:04:54.434Z,1441.00
2023-05-04T05:05:54.351Z,1480.00
2023-05-04T05:06:54.479Z,1471.00
2023-05-04T05:07:54.438Z,1456.00
2023-05-04T05:08:54.455Z,1277.00
2023-05-04T05:09:54.508Z,1142.00
2023-05-04T05:10:54.571Z,1078.00
2023-05-04T05:11:54.543Z,1101.00
2023-05-04T05:12:54.566Z,1120.00
2023-05-04T05:13:54.563Z,1155.00
2023-05-04T05:14:54.609Z,1152.00
2023-05-04T05:15:54.702Z,1172.00
2023-05-04T05:16:54.760Z,1175.00
2023-05-04T05:17:54.914Z,1227.00
2023-05-04T05:18:54.705Z,1147.00
2023-05-04T05:19:54.768Z,1168.00
2023-05-04T05:20:54.785Z,1225.00
2023-05-04T05:21:54.827Z,1170.00
2023-05-04T05:22:54.845Z,1149.00
2023-05-04T05:23:54.854Z,948.00
2023-05-04T05:24:54.846Z,884.00
2023-05-04T05:25:54.913Z,838.00
2023-05-04T05:26:54.904Z,708.00
2023-05-04T05:27:55.444Z,753.00
2023-05-04T05:28:54.945Z,767.00
2023-05-04T05:29:54.972Z,778.00
2023-05-04T05:30:54.967Z,801.00
2023-05-04T05:31:55.001Z,760.00
2023-05-04T05:32:55.167Z,805.00
2023-05-04T05:33:55.061Z,848.00
2023-05-04T05:34:55.070Z,845.00
2023-05-04T05:35:55.025Z,735.00
2023-05-04T05:36:55.100Z,763.00
2023-05-04T05:37:55.151Z,810.00
2023-05-04T05:38:55.128Z,791.00
2023-05-04T05:39:55.117Z,707.00
2023-05-04T05:40:55.171Z,683.00
2023-05-04T05:41:55.157Z,694.00
2023-05-04T05:42:55.163Z,692.00
2023-05-04T05:43:55.182Z,775.00
2023-05-04T05:44:55.169Z,705.00
2023-05-04T05:45:55.214Z,618.00
2023-05-04T05:46:55.223Z,635.00
2023-05-04T05:47:55.636Z,606.00
2023-05-04T05:48:55.214Z,587.00
2023-05-04T05:49:55.243Z,623.00
2023-05-04T05:50:55.280Z,683.00
2023-05-04T05:51:55.250Z,762.00
2023-05-04T05:52:55.388Z,836.00
2023-05-04T05:53:55.306Z,836.00
2023-05-04T05:54:55.319Z,799.00
2023-05-04T05:55:55.320Z,750.00
2023-05-04T05:56:55.417Z,908.00
2023-05-04T05:57:55.431Z,1059.00
2023-05-04T05:58:55.338Z,1024.00
2023-05-04T05:59:55.400Z,826.00
2023-05-04T06:00:55.359Z,846.00
2023-05-04T06:01:55.374Z,952.00
2023-05-04T06:02:55.442Z,1135.00
2023-05-04T06:03:55.618Z,1070.00
2023-05-04T06:04:55.441Z,1159.00
2023-05-04T06:05:55.329Z,1261.00
2023-05-04T06:06:55.418Z,1232.00
2023-05-04T06:07:55.404Z,1160.00
2023-05-04T06:08:55.426Z,1128.00
2023-05-04T06:09:55.448Z,1093.00
2023-05-04T06:10:55.337Z,899.00
2023-05-04T06:11:55.758Z,826.00
2023-05-04T06:12:55.395Z,646.00
2023-05-04T06:13:55.385Z,641.00
2023-05-04T06:14:55.340Z,488.00
2023-05-04T06:15:55.324Z,400.00
2023-05-04T06:16:55.491Z,400.00
2023-05-04T06:17:55.370Z,400.00
2023-05-04T06:18:55.319Z,405.00
2023-05-04T06:19:55.323Z,457.00
2023-05-04T06:20:55.431Z,483.00
2023-05-04T06:21:55.439Z,500.00
2023-05-04T06:22:55.920Z,501.00
2023-05-04T06:23:55.590Z,503.00
2023-05-04T06:25:00.400Z,500.00
2023-05-04T06:25:56.680Z,477.00
2023-05-04T06:26:55.620Z,488.00
2023-05-04T06:27:55.592Z,663.00
2023-05-04T06:28:55.579Z,683.00
2023-05-04T06:29:55.564Z,704.00
2023-05-04T06:30:55.589Z,543.00
2023-05-04T06:31:55.621Z,500.00
2023-05-04T06:32:55.938Z,501.00
2023-05-04T06:33:55.570Z,500.00
2023-05-04T06:34:55.601Z,500.00
2023-05-04T06:35:55.576Z,484.00
2023-05-04T06:36:55.523Z,509.00
2023-05-04T06:37:56.030Z,528.00
2023-05-04T06:38:55.527Z,506.00
2023-05-04T06:39:55.519Z,543.00
2023-05-04T06:40:55.527Z,555.00
2023-05-04T06:41:55.528Z,609.00
2023-05-04T06:42:55.970Z,600.00
2023-05-04T06:43:58.196Z,575.00
2023-05-04T06:44:55.503Z,552.00
2023-05-04T06:45:55.531Z,593.00
2023-05-04T06:46:55.494Z,616.00
2023-05-04T06:47:55.986Z,597.00
2023-05-04T06:48:55.464Z,529.00
2023-05-04T06:49:55.494Z,472.00
2023-05-04T06:50:55.472Z,483.00
2023-05-04T06:51:55.479Z,1538.00
2023-05-04T06:52:55.483Z,1483.00
2023-05-04T06:53:55.450Z,813.00
2023-05-04T06:54:55.477Z,535.00
2023-05-04T06:55:55.463Z,507.00
2023-05-04T06:56:55.403Z,497.00
2023-05-04T06:57:55.944Z,503.00
2023-05-04T06:58:55.440Z,486.00
2023-05-04T06:59:55.458Z,453.00
2023-05-04T07:00:55.455Z,484.00
2023-05-04T07:01:55.416Z,516.00
2023-05-04T07:02:55.424Z,570.00
2023-05-04T07:03:55.403Z,626.00
2023-05-04T07:04:55.401Z,573.00
2023-05-04T07:05:55.379Z,497.00
2023-05-04T07:06:55.373Z,500.00
2023-05-04T07:07:55.412Z,509.00
2023-05-04T07:08:55.368Z,517.00
2023-05-04T07:09:55.350Z,500.00
2023-05-04T07:10:55.365Z,540.00
2023-05-04T07:11:55.319Z,573.00
2023-05-04T07:12:55.442Z,612.00
2023-05-04T07:13:55.341Z,638.00
2023-05-04T07:14:55.297Z,619.00
2023-05-04T07:15:55.438Z,520.00
2023-05-04T07:16:55.304Z,501.00
2023-05-04T07:17:55.471Z,522.00
2023-05-04T07:18:55.305Z,500.00
2023-05-04T07:19:55.331Z,510.00
2023-05-04T07:21:01.652Z,515.00
2023-05-04T07:21:56.287Z,516.00
2023-05-04T07:22:55.287Z,527.00
2023-05-04T07:23:55.319Z,542.00
2023-05-04T07:24:55.242Z,581.00
2023-05-04T07:25:55.241Z,498.00
2023-05-04T07:26:55.265Z,464.00
2023-05-04T07:27:55.215Z,464.00
2023-05-04T07:28:55.230Z,504.00
2023-05-04T07:29:55.384Z,503.00
2023-05-04T07:30:55.234Z,498.00
2023-05-04T07:31:55.258Z,498.00
2023-05-04T07:32:55.451Z,503.00
2023-05-04T07:33:55.183Z,509.00
2023-05-04T07:34:55.210Z,514.00
2023-05-04T07:35:55.178Z,537.00
2023-05-04T07:36:55.169Z,565.00
2023-05-04T07:37:55.409Z,568.00
2023-05-04T07:38:55.142Z,606.00
2023-05-04T07:39:55.178Z,612.00
2023-05-04T07:40:55.149Z,520.00
2023-05-04T07:41:55.252Z,501.00
2023-05-04T07:42:55.543Z,535.00
2023-05-04T07:43:55.165Z,533.00
2023-05-04T07:44:55.183Z,407.00
2023-05-04T07:45:55.286Z,400.00
2023-05-04T07:46:55.304Z,400.00
2023-05-04T07:47:55.398Z,400.00
2023-05-04T07:48:55.365Z,400.00
2023-05-04T07:49:55.409Z,482.00
2023-05-04T07:50:55.466Z,501.00
2023-05-04T07:51:55.546Z,521.00
2023-05-04T07:52:55.683Z,576.00
2023-05-04T07:53:55.654Z,636.00
2023-05-04T07:54:55.744Z,651.00
2023-05-04T07:55:55.806Z,553.00
2023-05-04T07:56:55.842Z,587.00
2023-05-04T07:57:55.944Z,449.00
2023-05-04T07:58:55.906Z,488.00
2023-05-04T07:59:55.908Z,509.00
2023-05-04T08:00:55.985Z,541.00
2023-05-04T08:01:56.062Z,585.00
2023-05-04T08:02:56.493Z,650.00
2023-05-04T08:03:56.088Z,655.00
2023-05-04T08:04:56.097Z,749.00
2023-05-04T08:05:56.046Z,623.00
2023-05-04T08:06:56.101Z,654.00
2023-05-04T08:07:56.128Z,645.00
2023-05-04T08:08:56.163Z,789.00
2023-05-04T08:09:56.156Z,989.00
2023-05-04T08:11:02.004Z,729.00
2023-05-04T08:11:57.145Z,626.00
2023-05-04T08:12:56.151Z,663.00
2023-05-04T08:13:56.437Z,562.00
2023-05-04T08:14:56.161Z,486.00
2023-05-04T08:15:56.130Z,537.00
2023-05-04T08:16:56.116Z,556.00
2023-05-04T08:17:56.130Z,609.00
2023-05-04T08:18:56.077Z,619.00
2023-05-04T08:19:56.096Z,587.00
2023-05-04T08:20:56.108Z,547.00
2023-05-04T08:21:56.089Z,584.00
2023-05-04T08:22:56.268Z,624.00
2023-05-04T08:23:56.117Z,736.00
2023-05-04T08:24:56.185Z,793.00
2023-05-04T08:25:56.173Z,958.00
2023-05-04T08:27:07.013Z,850.00
2023-05-04T08:27:57.190Z,717.00
2023-05-04T08:28:56.243Z,752.00
2023-05-04T08:29:56.173Z,690.00
2023-05-04T08:30:56.234Z,792.00
2023-05-04T08:31:56.199Z,667.00
2023-05-04T08:32:56.208Z,634.00
2023-05-04T08:33:56.388Z,787.00
2023-05-04T08:34:56.199Z,993.00
2023-05-04T08:35:56.165Z,1003.00
2023-05-04T08:36:56.148Z,666.00
2023-05-04T08:37:56.146Z,643.00
2023-05-04T08:38:56.140Z,658.00
2023-05-04T08:39:56.140Z,619.00
2023-05-04T08:40:56.122Z,597.00
2023-05-04T08:41:56.089Z,597.00
2023-05-04T08:42:56.110Z,562.00
2023-05-04T08:43:56.111Z,572.00
2023-05-04T08:44:56.109Z,640.00
2023-05-04T08:45:56.143Z,674.00
2023-05-04T08:46:56.183Z,626.00
2023-05-04T08:47:56.162Z,559.00
2023-05-04T08:48:56.125Z,571.00
2023-05-04T08:49:56.055Z,594.00
2023-05-04T08:50:56.150Z,771.00
2023-05-04T08:51:56.158Z,994.00
2023-05-04T08:52:56.171Z,779.00
2023-05-04T08:53:56.264Z,614.00
2023-05-04T08:54:56.252Z,457.00
2023-05-04T08:55:56.335Z,400.00
2023-05-04T08:56:56.391Z,400.00
2023-05-04T08:57:56.442Z,400.00
2023-05-04T08:58:56.478Z,400.00
2023-05-04T08:59:56.568Z,411.00
2023-05-04T09:00:56.732Z,509.00
2023-05-04T09:01:56.710Z,502.00
2023-05-04T09:02:56.854Z,516.00
2023-05-04T09:03:56.986Z,609.00
2023-05-04T09:04:56.800Z,678.00
2023-05-04T09:05:56.913Z,649.00
2023-05-04T09:06:56.967Z,638.00
2023-05-04T09:07:57.017Z,758.00
2023-05-04T09:08:57.052Z,815.00
2023-05-04T09:09:57.125Z,878.00
2023-05-04T09:10:57.187Z,646.00
2023-05-04T09:11:57.193Z,643.00
2023-05-04T09:12:57.340Z,644.00
2023-05-04T09:13:57.333Z,606.00
2023-05-04T09:14:57.373Z,540.00
2023-05-04T09:15:57.428Z,601.00
2023-05-04T09:16:57.519Z,625.00
2023-05-04T09:17:58.136Z,661.00
2023-05-04T09:18:57.617Z,617.00
2023-05-04T09:19:57.650Z,576.00
2023-05-04T09:20:57.671Z,613.00
2023-05-04T09:21:58.115Z,645.00
2023-05-04T09:22:57.690Z,775.00
2023-05-04T09:23:57.789Z,781.00
2023-05-04T09:24:57.751Z,534.00
2023-05-04T09:25:57.762Z,500.00
2023-05-04T09:26:57.706Z,555.00
2023-05-04T09:27:57.895Z,600.00
2023-05-04T09:28:57.851Z,541.00
2023-05-04T09:29:57.815Z,563.00
2023-05-04T09:30:57.814Z,562.00
2023-05-04T09:31:57.796Z,588.00
2023-05-04T09:32:57.974Z,611.00
2023-05-04T09:33:57.908Z,1511.00
2023-05-04T09:34:58.025Z,2273.00
2023-05-04T09:35:58.152Z,3597.00
2023-05-04T09:36:58.046Z,3664.00
2023-05-04T09:37:58.119Z,2988.00
2023-05-04T09:38:58.164Z,3656.00
2023-05-04T09:39:58.167Z,3670.00
2023-05-04T09:40:58.172Z,2797.00
2023-05-04T09:41:58.192Z,1774.00
2023-05-04T09:42:58.183Z,1188.00
2023-05-04T09:43:58.252Z,917.00
2023-05-04T09:44:58.201Z,879.00
2023-05-04T09:45:58.295Z,848.00
2023-05-04T09:46:58.218Z,575.00
2023-05-04T09:47:58.315Z,501.00
2023-05-04T09:48:58.271Z,542.00
2023-05-04T09:49:58.270Z,578.00
2023-05-04T09:50:58.299Z,597.00
2023-05-04T09:51:58.337Z,636.00
2023-05-04T09:52:58.294Z,692.00
2023-05-04T09:53:58.356Z,810.00
2023-05-04T09:54:58.328Z,802.00
2023-05-04T09:56:00.048Z,592.00
2023-05-04T09:56:58.337Z,534.00
2023-05-04T09:57:58.302Z,542.00
2023-05-04T09:58:58.286Z,562.00
2023-05-04T09:59:58.284Z,508.00
2023-05-04T10:00:58.274Z,507.00
2023-05-04T10:02:00.442Z,558.00
2023-05-04T10:02:59.337Z,559.00
2023-05-04T10:03:58.442Z,515.00
2023-05-04T10:04:58.301Z,568.00
2023-05-04T10:05:58.312Z,631.00
2023-05-04T10:06:58.213Z,740.00
2023-05-04T10:07:58.248Z,656.00
2023-05-04T10:08:58.249Z,725.00
2023-05-04T10:09:58.215Z,733.00
2023-05-04T10:10:58.197Z,645.00
2023-05-04T10:12:00.390Z,554.00
2023-05-04T10:12:58.305Z,516.00
2023-05-04T10:13:58.361Z,500.00
2023-05-04T10:14:58.380Z,534.00
2023-05-04T10:15:58.449Z,582.00
2023-05-04T10:16:58.497Z,554.00
2023-05-04T10:17:58.548Z,455.00
2023-05-04T10:18:58.557Z,430.00
2023-05-04T10:19:58.641Z,537.00
2023-05-04T10:20:58.644Z,545.00
2023-05-04T10:21:58.696Z,540.00
2023-05-04T10:22:58.732Z,523.00
2023-05-04T10:23:58.765Z,559.00
2023-05-04T10:24:58.800Z,556.00
2023-05-04T10:25:58.864Z,455.00
2023-05-04T10:26:58.886Z,470.00
2023-05-04T10:27:58.902Z,548.00
2023-05-04T10:28:58.935Z,502.00
2023-05-04T10:29:59.009Z,545.00
2023-05-04T10:30:59.124Z,577.00
2023-05-04T10:31:59.052Z,587.00
2023-05-04T10:32:59.109Z,433.00
2023-05-04T10:33:59.518Z,437.00
2023-05-04T10:34:59.086Z,485.00
2023-05-04T10:35:59.229Z,493.00
2023-05-04T10:36:59.074Z,515.00
2023-05-04T10:37:59.134Z,581.00
2023-05-04T10:38:59.504Z,503.00
2023-05-04T10:39:59.307Z,500.00
2023-05-04T10:40:59.342Z,472.00
2023-05-04T10:41:59.451Z,500.00
2023-05-04T10:42:59.435Z,525.00
2023-05-04T10:43:59.559Z,499.00
2023-05-04T10:44:59.707Z,527.00
2023-05-04T10:45:59.693Z,646.00
2023-05-04T10:46:59.936Z,610.00
2023-05-04T10:47:59.844Z,690.00
2023-05-04T10:48:59.849Z,576.00
2023-05-04T10:49:59.870Z,503.00
2023-05-04T10:51:01.571Z,562.00
2023-05-04T10:52:01.850Z,563.00
2023-05-04T10:53:00.259Z,529.00
2023-05-04T10:54:00.178Z,573.00
2023-05-04T10:55:00.259Z,548.00
2023-05-04T10:56:00.180Z,464.00
2023-05-04T10:57:00.500Z,459.00
2023-05-04T10:58:01.232Z,539.00
2023-05-04T10:59:00.405Z,476.00
2023-05-04T11:00:00.317Z,500.00
2023-05-04T11:01:00.373Z,496.00
2023-05-04T11:02:00.410Z,480.00
2023-05-04T11:03:00.416Z,509.00
2023-05-04T11:04:00.490Z,523.00
2023-05-04T11:05:00.429Z,540.00
2023-05-04T11:06:01.352Z,562.00
2023-05-04T11:07:00.408Z,575.00
2023-05-04T11:08:00.584Z,561.00
2023-05-04T11:09:00.436Z,474.00
2023-05-04T11:10:00.645Z,547.00
2023-05-04T11:12:20.136Z,500.00
2023-05-04T11:14:44.732Z,500.00
2023-05-04T11:15:39.741Z,500.00
2023-05-04T11:18:01.115Z,500.00
2023-05-04T11:19:15.088Z,500.00
2023-05-04T11:20:00.783Z,500.00
2023-05-04T11:21:00.739Z,500.00
2023-05-04T11:26:04.735Z,500.00
2023-05-04T11:26:59.877Z,500.00
2023-05-04T11:27:59.927Z,500.00
2023-05-04T11:28:59.872Z,500.00
2023-05-04T11:30:12.043Z,500.00
2023-05-04T11:31:15.697Z,500.00
2023-05-04T11:32:32.456Z,500.00
2023-05-04T11:34:38.676Z,500.00
2023-05-04T11:35:53.002Z,500.00
2023-05-04T11:36:38.690Z,500.00
2023-05-04T11:37:38.664Z,500.00
2023-05-04T11:38:38.638Z,500.00
2023-05-04T11:39:38.717Z,500.00
2023-05-04T11:40:38.719Z,500.00
2023-05-04T11:41:38.775Z,473.00
2023-05-04T11:42:38.824Z,500.00
2023-05-04T11:43:38.945Z,520.00
2023-05-04T11:44:38.970Z,535.00
2023-05-04T11:45:38.936Z,554.00
2023-05-04T11:46:38.973Z,496.00
2023-05-04T11:47:38.993Z,519.00
2023-05-04T11:48:38.933Z,501.00
2023-05-04T11:49:38.942Z,497.00
2023-05-04T11:50:39.013Z,543.00
2023-05-04T11:51:38.994Z,664.00
2023-05-04T11:52:38.956Z,790.00
2023-05-04T11:53:38.971Z,610.00
2023-05-04T11:54:39.011Z,872.00
2023-05-04T11:55:39.151Z,1161.00
2023-05-04T11:56:39.082Z,1012.00
2023-05-04T11:57:39.174Z,1039.00
2023-05-04T11:58:39.354Z,908.00
2023-05-04T11:59:39.288Z,653.00
2023-05-04T12:00:40.477Z,615.00
2023-05-04T12:01:39.418Z,572.00
2023-05-04T12:02:39.528Z,508.00
2023-05-04T12:03:48.529Z,503.00
2023-05-04T12:04:40.506Z,505.00
2023-05-04T12:05:39.513Z,515.00
2023-05-04T12:06:39.527Z,400.00
2023-05-04T12:07:39.465Z,400.00
2023-05-04T12:08:39.481Z,400.00
2023-05-04T12:09:39.459Z,436.00
2023-05-04T12:10:39.481Z,459.00
2023-05-04T12:11:39.425Z,536.00
2023-05-04T12:12:39.550Z,585.00
2023-05-04T12:13:39.439Z,659.00
2023-05-04T12:14:39.864Z,559.00
2023-05-04T12:15:39.791Z,614.00
2023-05-04T12:16:39.999Z,582.00
2023-05-04T12:17:40.672Z,500.00
2023-05-04T12:18:39.777Z,515.00
2023-05-04T12:19:39.613Z,543.00
2023-05-04T12:20:39.539Z,643.00
2023-05-04T12:21:39.507Z,738.00
2023-05-04T12:22:39.556Z,635.00
2023-05-04T12:23:39.516Z,624.00
2023-05-04T12:24:39.576Z,576.00
2023-05-04T12:25:50.916Z,609.00
2023-05-04T12:26:40.563Z,609.00
2023-05-04T12:27:39.547Z,612.00
2023-05-04T12:28:39.584Z,628.00
2023-05-04T12:29:39.849Z,638.00
2023-05-04T12:30:39.579Z,648.00
2023-05-04T12:31:39.547Z,654.00
2023-05-04T12:32:39.512Z,629.00